sensor_id;sensor_type;location;lat;lon;timestamp;P1;durP1;ratioP1;P2;durP2;ratioP2
18100;SDS011;9177;49.156;8.142;2023-09-19T00:00:25;0.63;;;0.52;;
18100;SDS011;9177;49.156;8.142;2023-09-19T00:02:52;0.68;;;0.40;;
18100;SDS011;9177;49.156;8.142;2023-09-19T00:05:20;0.70;;;0.60;;
18100;SDS011;9177;49.156;8.142;2023-09-19T00:07:49;0.65;;;0.50;;
18100;SDS011;9177;49.156;8.142;2023-09-19T00:10:18;1.15;;;0.60;;
18100;SDS011;9177;49.156;8.142;2023-09-19T00:12:49;0.77;;;0.60;;
18100;SDS011;9177;49.156;8.142;2023-09-19T00:15:19;1.00;;;0.63;;
18100;SDS011;9177;49.156;8.142;2023-09-19T00:17:46;0.65;;;0.50;;
18100;SDS011;9177;49.156;8.142;2023-09-19T00:20:13;1.08;;;0.55;;
18100;SDS011;9177;49.156;8.142;2023-09-19T00:22:45;0.77;;;0.60;;
18100;SDS011;9177;49.156;8.142;2023-09-19T00:25:14;0.90;;;0.57;;
18100;SDS011;9177;49.156;8.142;2023-09-19T00:27:42;0.75;;;0.40;;
18100;SDS011;9177;49.156;8.142;2023-09-19T00:30:10;1.10;;;0.57;;
18100;SDS011;9177;49.156;8.142;2023-09-19T00:32:42;1.80;;;0.57;;
18100;SDS011;9177;49.156;8.142;2023-09-19T00:35:09;0.45;;;0.45;;
18100;SDS011;9177;49.156;8.142;2023-09-19T00:37:36;1.13;;;0.60;;
18100;SDS011;9177;49.156;8.142;2023-09-19T00:40:05;0.95;;;0.60;;
18100;SDS011;9177;49.156;8.142;2023-09-19T00:42:37;1.25;;;0.63;;
18100;SDS011;9177;49.156;8.142;2023-09-19T00:45:05;0.73;;;0.60;;
18100;SDS011;9177;49.156;8.142;2023-09-19T00:47:34;1.20;;;0.70;;
18100;SDS011;9177;49.156;8.142;2023-09-19T00:50:03;1.05;;;0.50;;
18100;SDS011;9177;49.156;8.142;2023-09-19T00:52:33;0.80;;;0.43;;
18100;SDS011;9177;49.156;8.142;2023-09-19T00:55:02;0.82;;;0.60;;
18100;SDS011;9177;49.156;8.142;2023-09-19T00:57:30;1.08;;;0.60;;
18100;SDS011;9177;49.156;8.142;2023-09-19T01:00:01;0.73;;;0.50;;
18100;SDS011;9177;49.156;8.142;2023-09-19T01:02:32;0.90;;;0.60;;
18100;SDS011;9177;49.156;8.142;2023-09-19T01:05:04;0.50;;;0.50;;
18100;SDS011;9177;49.156;8.142;2023-09-19T01:07:32;0.50;;;0.50;;
18100;SDS011;9177;49.156;8.142;2023-09-19T01:09:59;0.75;;;0.60;;
18100;SDS011;9177;49.156;8.142;2023-09-19T01:12:30;1.02;;;0.40;;
18100;SDS011;9177;49.156;8.142;2023-09-19T01:15:06;0.65;;;0.35;;
18100;SDS011;9177;49.156;8.142;2023-09-19T01:17:41;0.88;;;0.60;;
18100;SDS011;9177;49.156;8.142;2023-09-19T01:20:26;0.40;;;0.40;;
18100;SDS011;9177;49.156;8.142;2023-09-19T01:23:06;0.50;;;0.40;;
18100;SDS011;9177;49.156;8.142;2023-09-19T01:28:54;0.40;;;0.40;;
18100;SDS011;9177;49.156;8.142;2023-09-19T01:31:34;0.73;;;0.38;;
18100;SDS011;9177;49.156;8.142;2023-09-19T01:34:06;0.60;;;0.50;;
18100;SDS011;9177;49.156;8.142;2023-09-19T01:36:34;1.20;;;0.50;;
18100;SDS011;9177;49.156;8.142;2023-09-19T01:39:04;1.77;;;0.60;;
18100;SDS011;9177;49.156;8.142;2023-09-19T01:41:39;1.65;;;0.60;;
18100;SDS011;9177;49.156;8.142;2023-09-19T01:44:15;0.57;;;0.57;;
18100;SDS011;9177;49.156;8.142;2023-09-19T01:46:49;0.95;;;0.60;;
18100;SDS011;9177;49.156;8.142;2023-09-19T01:49:18;0.75;;;0.50;;
18100;SDS011;9177;49.156;8.142;2023-09-19T01:52:00;0.68;;;0.52;;
18100;SDS011;9177;49.156;8.142;2023-09-19T01:54:33;0.52;;;0.52;;
18100;SDS011;9177;49.156;8.142;2023-09-19T01:57:07;0.98;;;0.60;;
18100;SDS011;9177;49.156;8.142;2023-09-19T01:59:41;1.02;;;0.60;;
18100;SDS011;9177;49.156;8.142;2023-09-19T02:02:13;1.10;;;0.70;;
18100;SDS011;9177;49.156;8.142;2023-09-19T02:04:41;0.63;;;0.50;;
18100;SDS011;9177;49.156;8.142;2023-09-19T02:07:07;0.57;;;0.50;;
18100;SDS011;9177;49.156;8.142;2023-09-19T02:09:34;0.85;;;0.50;;
18100;SDS011;9177;49.156;8.142;2023-09-19T02:12:04;1.02;;;0.52;;
18100;SDS011;9177;49.156;8.142;2023-09-19T02:14:32;0.80;;;0.65;;
18100;SDS011;9177;49.156;8.142;2023-09-19T02:17:01;0.82;;;0.70;;
18100;SDS011;9177;49.156;8.142;2023-09-19T02:19:30;0.95;;;0.63;;
18100;SDS011;9177;49.156;8.142;2023-09-19T02:21:58;0.93;;;0.50;;
18100;SDS011;9177;49.156;8.142;2023-09-19T02:24:28;0.60;;;0.60;;
18100;SDS011;9177;49.156;8.142;2023-09-19T02:26:56;0.90;;;0.60;;
18100;SDS011;9177;49.156;8.142;2023-09-19T02:29:24;0.50;;;0.50;;
18100;SDS011;9177;49.156;8.142;2023-09-19T02:31:51;0.50;;;0.50;;
18100;SDS011;9177;49.156;8.142;2023-09-19T02:34:21;0.60;;;0.60;;
18100;SDS011;9177;49.156;8.142;2023-09-19T02:36:50;1.08;;;0.63;;
18100;SDS011;9177;49.156;8.142;2023-09-19T02:39:21;1.42;;;0.70;;
18100;SDS011;9177;49.156;8.142;2023-09-19T02:41:49;1.02;;;0.52;;
18100;SDS011;9177;49.156;8.142;2023-09-19T02:44:16;0.50;;;0.50;;
18100;SDS011;9177;49.156;8.142;2023-09-19T02:46:45;0.52;;;0.50;;
18100;SDS011;9177;49.156;8.142;2023-09-19T02:49:12;0.75;;;0.60;;
18100;SDS011;9177;49.156;8.142;2023-09-19T02:51:39;0.45;;;0.38;;
18100;SDS011;9177;49.156;8.142;2023-09-19T02:54:08;0.60;;;0.60;;
18100;SDS011;9177;49.156;8.142;2023-09-19T02:56:35;0.52;;;0.50;;
18100;SDS011;9177;49.156;8.142;2023-09-19T02:59:02;0.82;;;0.50;;
18100;SDS011;9177;49.156;8.142;2023-09-19T03:01:29;0.60;;;0.55;;
18100;SDS011;9177;49.156;8.142;2023-09-19T03:03:57;1.42;;;0.60;;
18100;SDS011;9177;49.156;8.142;2023-09-19T03:06:24;1.35;;;0.75;;
18100;SDS011;9177;49.156;8.142;2023-09-19T03:08:51;0.80;;;0.50;;
18100;SDS011;9177;49.156;8.142;2023-09-19T03:11:20;0.60;;;0.45;;
18100;SDS011;9177;49.156;8.142;2023-09-19T03:13:50;0.50;;;0.40;;
18100;SDS011;9177;49.156;8.142;2023-09-19T03:16:18;0.82;;;0.40;;
18100;SDS011;9177;49.156;8.142;2023-09-19T03:18:46;0.43;;;0.43;;
18100;SDS011;9177;49.156;8.142;2023-09-19T03:21:16;1.10;;;0.63;;
18100;SDS011;9177;49.156;8.142;2023-09-19T03:23:44;0.70;;;0.60;;
18100;SDS011;9177;49.156;8.142;2023-09-19T03:26:12;0.60;;;0.60;;
18100;SDS011;9177;49.156;8.142;2023-09-19T03:28:41;0.95;;;0.75;;
18100;SDS011;9177;49.156;8.142;2023-09-19T03:31:08;1.42;;;0.60;;
18100;SDS011;9177;49.156;8.142;2023-09-19T03:33:35;1.35;;;0.68;;
18100;SDS011;9177;49.156;8.142;2023-09-19T03:36:03;0.75;;;0.75;;
18100;SDS011;9177;49.156;8.142;2023-09-19T03:38:31;1.10;;;0.57;;
18100;SDS011;9177;49.156;8.142;2023-09-19T03:40:59;0.70;;;0.60;;
18100;SDS011;9177;49.156;8.142;2023-09-19T03:43:26;0.57;;;0.50;;
18100;SDS011;9177;49.156;8.142;2023-09-19T03:45:54;0.82;;;0.50;;
18100;SDS011;9177;49.156;8.142;2023-09-19T03:48:21;1.05;;;0.63;;
18100;SDS011;9177;49.156;8.142;2023-09-19T03:50:48;0.52;;;0.40;;
18100;SDS011;9177;49.156;8.142;2023-09-19T03:53:16;0.50;;;0.50;;
18100;SDS011;9177;49.156;8.142;2023-09-19T03:55:44;1.00;;;0.60;;
18100;SDS011;9177;49.156;8.142;2023-09-19T03:58:12;0.80;;;0.60;;
18100;SDS011;9177;49.156;8.142;2023-09-19T04:00:39;1.00;;;0.60;;
18100;SDS011;9177;49.156;8.142;2023-09-19T04:03:07;0.70;;;0.60;;
18100;SDS011;9177;49.156;8.142;2023-09-19T04:08:29;1.10;;;0.70;;
18100;SDS011;9177;49.156;8.142;2023-09-19T04:10:55;1.55;;;0.90;;
18100;SDS011;9177;49.156;8.142;2023-09-19T04:13:22;1.10;;;0.70;;
18100;SDS011;9177;49.156;8.142;2023-09-19T04:15:49;0.77;;;0.73;;
18100;SDS011;9177;49.156;8.142;2023-09-19T04:18:17;1.65;;;0.70;;
18100;SDS011;9177;49.156;8.142;2023-09-19T04:20:47;1.05;;;0.65;;
18100;SDS011;9177;49.156;8.142;2023-09-19T04:23:14;0.90;;;0.70;;
18100;SDS011;9177;49.156;8.142;2023-09-19T04:25:41;0.98;;;0.90;;
18100;SDS011;9177;49.156;8.142;2023-09-19T04:28:08;1.52;;;0.80;;
18100;SDS011;9177;49.156;8.142;2023-09-19T04:30:36;0.50;;;0.50;;
18100;SDS011;9177;49.156;8.142;2023-09-19T04:33:05;1.13;;;0.85;;
18100;SDS011;9177;49.156;8.142;2023-09-19T04:35:34;0.80;;;0.80;;
18100;SDS011;9177;49.156;8.142;2023-09-19T04:38:01;1.02;;;0.80;;
18100;SDS011;9177;49.156;8.142;2023-09-19T04:40:28;0.68;;;0.68;;
18100;SDS011;9177;49.156;8.142;2023-09-19T04:42:55;0.73;;;0.63;;
18100;SDS011;9177;49.156;8.142;2023-09-19T04:45:23;1.25;;;0.70;;
18100;SDS011;9177;49.156;8.142;2023-09-19T04:47:50;1.08;;;0.77;;
18100;SDS011;9177;49.156;8.142;2023-09-19T04:50:17;1.20;;;0.80;;
18100;SDS011;9177;49.156;8.142;2023-09-19T04:52:45;0.95;;;0.70;;
18100;SDS011;9177;49.156;8.142;2023-09-19T04:55:16;1.13;;;0.60;;
18100;SDS011;9177;49.156;8.142;2023-09-19T04:57:44;0.68;;;0.68;;
18100;SDS011;9177;49.156;8.142;2023-09-19T05:00:13;1.05;;;0.80;;
18100;SDS011;9177;49.156;8.142;2023-09-19T05:02:41;0.93;;;0.60;;
18100;SDS011;9177;49.156;8.142;2023-09-19T05:05:09;0.80;;;0.75;;
18100;SDS011;9177;49.156;8.142;2023-09-19T05:07:36;1.08;;;0.75;;
18100;SDS011;9177;49.156;8.142;2023-09-19T05:10:07;0.60;;;0.55;;
18100;SDS011;9177;49.156;8.142;2023-09-19T05:12:37;0.80;;;0.60;;
18100;SDS011;9177;49.156;8.142;2023-09-19T05:15:04;1.65;;;0.90;;
18100;SDS011;9177;49.156;8.142;2023-09-19T05:17:32;1.02;;;0.63;;
18100;SDS011;9177;49.156;8.142;2023-09-19T05:20:00;0.82;;;0.73;;
18100;SDS011;9177;49.156;8.142;2023-09-19T05:22:31;0.88;;;0.88;;
18100;SDS011;9177;49.156;8.142;2023-09-19T05:24:58;1.02;;;0.70;;
18100;SDS011;9177;49.156;8.142;2023-09-19T05:27:26;0.65;;;0.60;;
18100;SDS011;9177;49.156;8.142;2023-09-19T05:29:53;2.15;;;0.73;;
18100;SDS011;9177;49.156;8.142;2023-09-19T05:32:20;0.63;;;0.60;;
18100;SDS011;9177;49.156;8.142;2023-09-19T05:34:47;0.70;;;0.70;;
18100;SDS011;9177;49.156;8.142;2023-09-19T05:37:18;0.75;;;0.70;;
18100;SDS011;9177;49.156;8.142;2023-09-19T05:39:45;1.15;;;0.80;;
18100;SDS011;9177;49.156;8.142;2023-09-19T05:42:12;1.35;;;0.90;;
18100;SDS011;9177;49.156;8.142;2023-09-19T05:44:40;0.80;;;0.60;;
18100;SDS011;9177;49.156;8.142;2023-09-19T05:47:07;0.60;;;0.60;;
18100;SDS011;9177;49.156;8.142;2023-09-19T05:49:34;0.65;;;0.52;;
18100;SDS011;9177;49.156;8.142;2023-09-19T05:52:06;0.82;;;0.70;;
18100;SDS011;9177;49.156;8.142;2023-09-19T05:54:33;7.13;;;1.00;;
18100;SDS011;9177;49.156;8.142;2023-09-19T05:57:00;4.60;;;1.23;;
18100;SDS011;9177;49.156;8.142;2023-09-19T05:59:27;10.57;;;1.38;;
18100;SDS011;9177;49.156;8.142;2023-09-19T06:01:55;4.00;;;0.90;;
18100;SDS011;9177;49.156;8.142;2023-09-19T06:04:22;3.80;;;1.20;;
18100;SDS011;9177;49.156;8.142;2023-09-19T06:06:50;8.68;;;1.40;;
18100;SDS011;9177;49.156;8.142;2023-09-19T06:09:17;4.50;;;1.15;;
18100;SDS011;9177;49.156;8.142;2023-09-19T06:11:44;6.55;;;1.08;;
18100;SDS011;9177;49.156;8.142;2023-09-19T06:14:11;2.80;;;1.00;;
18100;SDS011;9177;49.156;8.142;2023-09-19T06:16:42;3.90;;;1.08;;
18100;SDS011;9177;49.156;8.142;2023-09-19T06:19:11;4.22;;;0.80;;
18100;SDS011;9177;49.156;8.142;2023-09-19T06:21:38;1.90;;;1.10;;
18100;SDS011;9177;49.156;8.142;2023-09-19T06:24:06;2.33;;;1.08;;
18100;SDS011;9177;49.156;8.142;2023-09-19T06:26:33;2.40;;;1.23;;
18100;SDS011;9177;49.156;8.142;2023-09-19T06:29:00;4.40;;;1.30;;
18100;SDS011;9177;49.156;8.142;2023-09-19T06:31:32;2.53;;;1.08;;
18100;SDS011;9177;49.156;8.142;2023-09-19T06:33:59;3.80;;;1.10;;
18100;SDS011;9177;49.156;8.142;2023-09-19T06:36:27;2.92;;;0.90;;
18100;SDS011;9177;49.156;8.142;2023-09-19T06:38:54;3.90;;;1.05;;
18100;SDS011;9177;49.156;8.142;2023-09-19T06:41:21;3.10;;;1.30;;
18100;SDS011;9177;49.156;8.142;2023-09-19T06:43:50;6.03;;;1.40;;
18100;SDS011;9177;49.156;8.142;2023-09-19T06:46:18;2.00;;;1.00;;
18100;SDS011;9177;49.156;8.142;2023-09-19T06:48:45;4.30;;;1.05;;
18100;SDS011;9177;49.156;8.142;2023-09-19T06:51:14;3.17;;;1.23;;
18100;SDS011;9177;49.156;8.142;2023-09-19T06:53:45;1.80;;;0.98;;
18100;SDS011;9177;49.156;8.142;2023-09-19T06:56:12;6.20;;;1.00;;
18100;SDS011;9177;49.156;8.142;2023-09-19T06:58:39;6.35;;;1.15;;
18100;SDS011;9177;49.156;8.142;2023-09-19T07:01:08;5.57;;;1.30;;
18100;SDS011;9177;49.156;8.142;2023-09-19T07:03:35;2.60;;;0.95;;
18100;SDS011;9177;49.156;8.142;2023-09-19T07:06:02;10.80;;;1.55;;
18100;SDS011;9177;49.156;8.142;2023-09-19T07:08:29;9.10;;;1.55;;
18100;SDS011;9177;49.156;8.142;2023-09-19T07:10:58;21.02;;;2.55;;
18100;SDS011;9177;49.156;8.142;2023-09-19T07:13:25;59.72;;;6.55;;
18100;SDS011;9177;49.156;8.142;2023-09-19T07:15:52;53.92;;;6.15;;
18100;SDS011;9177;49.156;8.142;2023-09-19T07:18:19;50.95;;;6.38;;
18100;SDS011;9177;49.156;8.142;2023-09-19T07:20:46;62.65;;;6.95;;
18100;SDS011;9177;49.156;8.142;2023-09-19T07:23:15;50.10;;;7.00;;
18100;SDS011;9177;49.156;8.142;2023-09-19T07:25:43;72.70;;;7.85;;
18100;SDS011;9177;49.156;8.142;2023-09-19T07:28:11;51.33;;;8.15;;
18100;SDS011;9177;49.156;8.142;2023-09-19T07:30:38;68.93;;;7.65;;
18100;SDS011;9177;49.156;8.142;2023-09-19T07:33:06;69.25;;;8.07;;
18100;SDS011;9177;49.156;8.142;2023-09-19T07:35:36;46.58;;;6.50;;
18100;SDS011;9177;49.156;8.142;2023-09-19T07:38:05;47.42;;;6.18;;
18100;SDS011;9177;49.156;8.142;2023-09-19T07:40:33;41.15;;;5.88;;
18100;SDS011;9177;49.156;8.142;2023-09-19T07:43:00;45.67;;;6.53;;
18100;SDS011;9177;49.156;8.142;2023-09-19T07:45:30;46.20;;;6.22;;
18100;SDS011;9177;49.156;8.142;2023-09-19T07:47:57;44.60;;;5.75;;
18100;SDS011;9177;49.156;8.142;2023-09-19T07:50:26;36.55;;;5.50;;
18100;SDS011;9177;49.156;8.142;2023-09-19T07:52:53;44.42;;;5.72;;
18100;SDS011;9177;49.156;8.142;2023-09-19T07:55:21;28.10;;;4.57;;
18100;SDS011;9177;49.156;8.142;2023-09-19T07:57:50;35.53;;;4.88;;
18100;SDS011;9177;49.156;8.142;2023-09-19T08:00:18;27.92;;;4.18;;
18100;SDS011;9177;49.156;8.142;2023-09-19T08:02:46;26.00;;;4.70;;
18100;SDS011;9177;49.156;8.142;2023-09-19T08:05:13;24.80;;;4.47;;
18100;SDS011;9177;49.156;8.142;2023-09-19T08:07:42;26.80;;;4.65;;
18100;SDS011;9177;49.156;8.142;2023-09-19T08:10:14;32.38;;;4.78;;
18100;SDS011;9177;49.156;8.142;2023-09-19T08:12:44;24.88;;;4.15;;
18100;SDS011;9177;49.156;8.142;2023-09-19T08:15:12;29.80;;;3.85;;
18100;SDS011;9177;49.156;8.142;2023-09-19T08:17:40;25.08;;;3.72;;
18100;SDS011;9177;49.156;8.142;2023-09-19T08:20:09;26.80;;;4.20;;
18100;SDS011;9177;49.156;8.142;2023-09-19T08:22:41;25.45;;;4.03;;
18100;SDS011;9177;49.156;8.142;2023-09-19T08:25:11;18.58;;;3.85;;
18100;SDS011;9177;49.156;8.142;2023-09-19T08:27:38;23.48;;;3.53;;
18100;SDS011;9177;49.156;8.142;2023-09-19T08:30:05;20.67;;;3.65;;
18100;SDS011;9177;49.156;8.142;2023-09-19T08:32:33;17.98;;;3.17;;
18100;SDS011;9177;49.156;8.142;2023-09-19T08:35:00;20.00;;;3.33;;
18100;SDS011;9177;49.156;8.142;2023-09-19T08:37:28;13.45;;;2.92;;
18100;SDS011;9177;49.156;8.142;2023-09-19T08:39:55;15.07;;;2.88;;
18100;SDS011;9177;49.156;8.142;2023-09-19T08:42:22;12.85;;;3.17;;
18100;SDS011;9177;49.156;8.142;2023-09-19T08:44:50;13.45;;;2.85;;
18100;SDS011;9177;49.156;8.142;2023-09-19T08:47:22;11.32;;;2.97;;
18100;SDS011;9177;49.156;8.142;2023-09-19T08:49:58;14.70;;;3.10;;
18100;SDS011;9177;49.156;8.142;2023-09-19T08:52:32;13.82;;;2.60;;
18100;SDS011;9177;49.156;8.142;2023-09-19T08:55:03;10.45;;;2.90;;
18100;SDS011;9177;49.156;8.142;2023-09-19T08:57:36;14.43;;;2.58;;
18100;SDS011;9177;49.156;8.142;2023-09-19T09:00:06;10.70;;;2.42;;
18100;SDS011;9177;49.156;8.142;2023-09-19T09:02:37;12.57;;;2.67;;
18100;SDS011;9177;49.156;8.142;2023-09-19T09:05:06;9.60;;;2.33;;
18100;SDS011;9177;49.156;8.142;2023-09-19T09:07:36;13.13;;;3.00;;
18100;SDS011;9177;49.156;8.142;2023-09-19T09:10:04;10.90;;;2.72;;
18100;SDS011;9177;49.156;8.142;2023-09-19T09:12:32;8.35;;;2.08;;
18100;SDS011;9177;49.156;8.142;2023-09-19T09:15:01;12.85;;;3.08;;
18100;SDS011;9177;49.156;8.142;2023-09-19T09:17:29;9.68;;;2.30;;
18100;SDS011;9177;49.156;8.142;2023-09-19T09:19:56;11.57;;;2.42;;
18100;SDS011;9177;49.156;8.142;2023-09-19T09:22:23;11.10;;;2.20;;
18100;SDS011;9177;49.156;8.142;2023-09-19T09:24:52;13.63;;;2.28;;
18100;SDS011;9177;49.156;8.142;2023-09-19T09:27:22;6.88;;;2.00;;
18100;SDS011;9177;49.156;8.142;2023-09-19T09:29:50;8.93;;;2.13;;
18100;SDS011;9177;49.156;8.142;2023-09-19T09:32:20;7.90;;;2.28;;
18100;SDS011;9177;49.156;8.142;2023-09-19T09:34:48;10.55;;;2.03;;
18100;SDS011;9177;49.156;8.142;2023-09-19T09:37:18;9.95;;;2.10;;
18100;SDS011;9177;49.156;8.142;2023-09-19T09:39:48;4.40;;;1.45;;
18100;SDS011;9177;49.156;8.142;2023-09-19T09:45:13;5.00;;;1.60;;
18100;SDS011;9177;49.156;8.142;2023-09-19T09:47:41;3.90;;;1.42;;
18100;SDS011;9177;49.156;8.142;2023-09-19T09:50:27;4.45;;;1.55;;
18100;SDS011;9177;49.156;8.142;2023-09-19T09:53:03;4.13;;;1.73;;
18100;SDS011;9177;49.156;8.142;2023-09-19T09:58:25;4.90;;;1.45;;
18100;SDS011;9177;49.156;8.142;2023-09-19T10:00:54;2.88;;;1.42;;
18100;SDS011;9177;49.156;8.142;2023-09-19T10:03:30;3.78;;;1.42;;
18100;SDS011;9177;49.156;8.142;2023-09-19T10:05:59;4.70;;;1.58;;
18100;SDS011;9177;49.156;8.142;2023-09-19T10:08:34;5.40;;;1.58;;
18100;SDS011;9177;49.156;8.142;2023-09-19T10:11:12;6.93;;;1.83;;
18100;SDS011;9177;49.156;8.142;2023-09-19T10:13:43;4.15;;;1.73;;
18100;SDS011;9177;49.156;8.142;2023-09-19T10:16:12;3.78;;;1.70;;
18100;SDS011;9177;49.156;8.142;2023-09-19T10:18:41;3.83;;;2.30;;
18100;SDS011;9177;49.156;8.142;2023-09-19T10:21:09;3.67;;;2.00;;
18100;SDS011;9177;49.156;8.142;2023-09-19T10:23:37;3.88;;;1.70;;
18100;SDS011;9177;49.156;8.142;2023-09-19T10:26:08;3.22;;;1.70;;
18100;SDS011;9177;49.156;8.142;2023-09-19T10:28:35;2.72;;;1.80;;
18100;SDS011;9177;49.156;8.142;2023-09-19T10:31:06;2.78;;;2.08;;
18100;SDS011;9177;49.156;8.142;2023-09-19T10:33:35;3.58;;;2.40;;
18100;SDS011;9177;49.156;8.142;2023-09-19T10:36:03;3.72;;;1.88;;
18100;SDS011;9177;49.156;8.142;2023-09-19T10:38:32;3.53;;;2.00;;
18100;SDS011;9177;49.156;8.142;2023-09-19T10:41:01;3.45;;;2.30;;
18100;SDS011;9177;49.156;8.142;2023-09-19T10:43:29;2.80;;;2.30;;
18100;SDS011;9177;49.156;8.142;2023-09-19T10:46:00;4.47;;;2.65;;
18100;SDS011;9177;49.156;8.142;2023-09-19T10:48:30;4.18;;;2.17;;
18100;SDS011;9177;49.156;8.142;2023-09-19T10:50:59;3.10;;;2.22;;
18100;SDS011;9177;49.156;8.142;2023-09-19T10:53:32;4.20;;;2.30;;
18100;SDS011;9177;49.156;8.142;2023-09-19T10:56:13;3.70;;;2.40;;
18100;SDS011;9177;49.156;8.142;2023-09-19T10:58:47;2.85;;;2.20;;
18100;SDS011;9177;49.156;8.142;2023-09-19T11:01:15;3.55;;;2.40;;
18100;SDS011;9177;49.156;8.142;2023-09-19T11:03:44;3.97;;;1.90;;
18100;SDS011;9177;49.156;8.142;2023-09-19T11:06:14;2.90;;;2.38;;
18100;SDS011;9177;49.156;8.142;2023-09-19T11:08:54;3.17;;;2.05;;
18100;SDS011;9177;49.156;8.142;2023-09-19T11:11:47;3.33;;;1.80;;
18100;SDS011;9177;49.156;8.142;2023-09-19T11:14:38;4.03;;;1.92;;
18100;SDS011;9177;49.156;8.142;2023-09-19T11:20:24;3.42;;;1.65;;
18100;SDS011;9177;49.156;8.142;2023-09-19T11:23:20;3.25;;;1.60;;
18100;SDS011;9177;49.156;8.142;2023-09-19T11:25:54;2.97;;;1.63;;
18100;SDS011;9177;49.156;8.142;2023-09-19T11:28:28;2.70;;;1.63;;
18100;SDS011;9177;49.156;8.142;2023-09-19T11:30:58;3.75;;;1.77;;
18100;SDS011;9177;49.156;8.142;2023-09-19T11:33:25;3.35;;;1.75;;
18100;SDS011;9177;49.156;8.142;2023-09-19T11:36:01;3.45;;;1.48;;
18100;SDS011;9177;49.156;8.142;2023-09-19T11:41:38;4.47;;;1.52;;
18100;SDS011;9177;49.156;8.142;2023-09-19T11:47:00;3.50;;;1.40;;
18100;SDS011;9177;49.156;8.142;2023-09-19T11:49:29;2.75;;;1.23;;
18100;SDS011;9177;49.156;8.142;2023-09-19T11:51:58;2.35;;;1.52;;
18100;SDS011;9177;49.156;8.142;2023-09-19T11:54:29;3.33;;;1.33;;
18100;SDS011;9177;49.156;8.142;2023-09-19T11:56:58;4.00;;;1.58;;
18100;SDS011;9177;49.156;8.142;2023-09-19T11:59:26;2.10;;;1.27;;
18100;SDS011;9177;49.156;8.142;2023-09-19T12:01:55;3.33;;;1.33;;
18100;SDS011;9177;49.156;8.142;2023-09-19T12:04:36;4.85;;;1.77;;
18100;SDS011;9177;49.156;8.142;2023-09-19T12:07:07;2.95;;;1.65;;
18100;SDS011;9177;49.156;8.142;2023-09-19T12:09:40;2.47;;;1.58;;
18100;SDS011;9177;49.156;8.142;2023-09-19T12:12:09;2.45;;;1.48;;
18100;SDS011;9177;49.156;8.142;2023-09-19T12:14:40;3.15;;;1.40;;
18100;SDS011;9177;49.156;8.142;2023-09-19T12:17:09;2.70;;;1.55;;
18100;SDS011;9177;49.156;8.142;2023-09-19T12:19:38;4.22;;;1.60;;
18100;SDS011;9177;49.156;8.142;2023-09-19T12:22:06;3.53;;;1.40;;
18100;SDS011;9177;49.156;8.142;2023-09-19T12:24:34;4.38;;;1.73;;
18100;SDS011;9177;49.156;8.142;2023-09-19T12:27:04;3.15;;;1.55;;
18100;SDS011;9177;49.156;8.142;2023-09-19T12:29:32;2.75;;;1.85;;
18100;SDS011;9177;49.156;8.142;2023-09-19T12:32:08;3.05;;;1.40;;
18100;SDS011;9177;49.156;8.142;2023-09-19T12:34:35;2.70;;;1.33;;
18100;SDS011;9177;49.156;8.142;2023-09-19T12:37:09;3.63;;;1.52;;
18100;SDS011;9177;49.156;8.142;2023-09-19T12:39:42;2.53;;;1.00;;
18100;SDS011;9177;49.156;8.142;2023-09-19T12:42:13;2.92;;;1.30;;
18100;SDS011;9177;49.156;8.142;2023-09-19T12:44:42;1.38;;;0.98;;
18100;SDS011;9177;49.156;8.142;2023-09-19T12:47:11;2.47;;;1.00;;
18100;SDS011;9177;49.156;8.142;2023-09-19T12:52:41;2.20;;;1.20;;
18100;SDS011;9177;49.156;8.142;2023-09-19T12:55:19;2.80;;;1.20;;
18100;SDS011;9177;49.156;8.142;2023-09-19T12:58:03;1.45;;;1.15;;
18100;SDS011;9177;49.156;8.142;2023-09-19T13:00:35;1.25;;;1.10;;
18100;SDS011;9177;49.156;8.142;2023-09-19T13:03:17;1.60;;;1.15;;
18100;SDS011;9177;49.156;8.142;2023-09-19T13:05:50;2.15;;;1.10;;
18100;SDS011;9177;49.156;8.142;2023-09-19T13:08:21;3.75;;;1.50;;
18100;SDS011;9177;49.156;8.142;2023-09-19T13:11:02;5.63;;;1.50;;
18100;SDS011;9177;49.156;8.142;2023-09-19T13:13:38;3.35;;;1.38;;
18100;SDS011;9177;49.156;8.142;2023-09-19T13:16:06;3.30;;;1.90;;
18100;SDS011;9177;49.156;8.142;2023-09-19T13:18:43;4.70;;;2.03;;
18100;SDS011;9177;49.156;8.142;2023-09-19T13:21:11;3.35;;;1.90;;
18100;SDS011;9177;49.156;8.142;2023-09-19T13:23:49;5.20;;;2.25;;
18100;SDS011;9177;49.156;8.142;2023-09-19T13:26:17;3.10;;;1.98;;
18100;SDS011;9177;49.156;8.142;2023-09-19T13:28:44;1.95;;;1.70;;
18100;SDS011;9177;49.156;8.142;2023-09-19T13:31:13;3.55;;;1.90;;
18100;SDS011;9177;49.156;8.142;2023-09-19T13:33:42;4.30;;;1.80;;
18100;SDS011;9177;49.156;8.142;2023-09-19T13:36:10;2.33;;;1.75;;
18100;SDS011;9177;49.156;8.142;2023-09-19T13:38:38;4.43;;;1.88;;
18100;SDS011;9177;49.156;8.142;2023-09-19T13:41:09;4.47;;;1.80;;
18100;SDS011;9177;49.156;8.142;2023-09-19T13:43:36;4.97;;;1.80;;
18100;SDS011;9177;49.156;8.142;2023-09-19T13:46:04;5.05;;;1.48;;
18100;SDS011;9177;49.156;8.142;2023-09-19T13:48:32;3.63;;;1.52;;
18100;SDS011;9177;49.156;8.142;2023-09-19T13:51:01;2.95;;;1.65;;
18100;SDS011;9177;49.156;8.142;2023-09-19T13:53:28;3.85;;;1.50;;
18100;SDS011;9177;49.156;8.142;2023-09-19T13:55:55;3.05;;;1.67;;
18100;SDS011;9177;49.156;8.142;2023-09-19T13:58:24;7.18;;;1.67;;
18100;SDS011;9177;49.156;8.142;2023-09-19T14:00:52;4.28;;;1.70;;
18100;SDS011;9177;49.156;8.142;2023-09-19T14:03:23;2.88;;;1.80;;
18100;SDS011;9177;49.156;8.142;2023-09-19T14:05:53;2.75;;;1.75;;
18100;SDS011;9177;49.156;8.142;2023-09-19T14:08:20;3.35;;;1.67;;
18100;SDS011;9177;49.156;8.142;2023-09-19T14:10:49;4.50;;;1.83;;
18100;SDS011;9177;49.156;8.142;2023-09-19T14:13:15;4.30;;;1.75;;
18100;SDS011;9177;49.156;8.142;2023-09-19T14:15:44;2.83;;;1.48;;
18100;SDS011;9177;49.156;8.142;2023-09-19T14:18:10;3.97;;;1.60;;
18100;SDS011;9177;49.156;8.142;2023-09-19T14:20:38;4.53;;;1.90;;
18100;SDS011;9177;49.156;8.142;2023-09-19T14:23:06;3.28;;;2.10;;
18100;SDS011;9177;49.156;8.142;2023-09-19T14:25:34;2.95;;;1.77;;
18100;SDS011;9177;49.156;8.142;2023-09-19T14:28:01;5.10;;;1.83;;
18100;SDS011;9177;49.156;8.142;2023-09-19T14:30:28;3.85;;;1.80;;
18100;SDS011;9177;49.156;8.142;2023-09-19T14:32:57;3.47;;;1.88;;
18100;SDS011;9177;49.156;8.142;2023-09-19T14:35:24;2.33;;;1.50;;
18100;SDS011;9177;49.156;8.142;2023-09-19T14:37:54;3.28;;;1.60;;
18100;SDS011;9177;49.156;8.142;2023-09-19T14:40:21;2.67;;;1.40;;
18100;SDS011;9177;49.156;8.142;2023-09-19T14:42:48;2.97;;;1.33;;
18100;SDS011;9177;49.156;8.142;2023-09-19T14:45:15;2.97;;;1.60;;
18100;SDS011;9177;49.156;8.142;2023-09-19T14:47:43;7.03;;;1.58;;
18100;SDS011;9177;49.156;8.142;2023-09-19T14:50:13;3.45;;;1.50;;
18100;SDS011;9177;49.156;8.142;2023-09-19T14:52:41;4.78;;;1.30;;
18100;SDS011;9177;49.156;8.142;2023-09-19T14:55:08;5.13;;;1.42;;
18100;SDS011;9177;49.156;8.142;2023-09-19T14:57:39;3.20;;;1.40;;
18100;SDS011;9177;49.156;8.142;2023-09-19T15:00:09;2.67;;;1.38;;
18100;SDS011;9177;49.156;8.142;2023-09-19T15:02:37;3.25;;;1.20;;
18100;SDS011;9177;49.156;8.142;2023-09-19T15:05:05;3.70;;;1.23;;
18100;SDS011;9177;49.156;8.142;2023-09-19T15:07:35;3.10;;;1.33;;
18100;SDS011;9177;49.156;8.142;2023-09-19T15:10:03;2.58;;;1.08;;
18100;SDS011;9177;49.156;8.142;2023-09-19T15:12:34;2.58;;;1.23;;
18100;SDS011;9177;49.156;8.142;2023-09-19T15:15:03;2.80;;;1.05;;
18100;SDS011;9177;49.156;8.142;2023-09-19T15:17:32;3.25;;;1.15;;
18100;SDS011;9177;49.156;8.142;2023-09-19T15:19:59;1.95;;;1.00;;
18100;SDS011;9177;49.156;8.142;2023-09-19T15:22:27;3.65;;;1.42;;
18100;SDS011;9177;49.156;8.142;2023-09-19T15:24:55;2.15;;;1.25;;
18100;SDS011;9177;49.156;8.142;2023-09-19T15:27:22;4.82;;;1.40;;
18100;SDS011;9177;49.156;8.142;2023-09-19T15:29:48;4.88;;;1.35;;
18100;SDS011;9177;49.156;8.142;2023-09-19T15:32:15;3.97;;;1.20;;
18100;SDS011;9177;49.156;8.142;2023-09-19T15:34:42;3.20;;;1.20;;
18100;SDS011;9177;49.156;8.142;2023-09-19T15:37:10;1.88;;;1.10;;